Terminal Aerodrome Forecast
Issued by NWS

Home | Current Version | Previous Version | Text Only | Print | Product List | Glossary On
Versions: 1 2 3 4 5 6 7 8 9 10 11 12 13 14 15 16
000
FTAK31 PANC 251141
TAFADU
TAF
PADU 251141Z 2512/2612 21010KT P6SM VCSH BKN025 OVC035
     FM251500 22010KT P6SM SCT025 BKN040
     FM252200 17008KT P6SM -SHRA BKN025 OVC035
     FM260200 18009KT 6SM -SHRA BR BKN015 OVC025
     FM260800 VRB05KT P6SM VCSH BKN015 OVC025=

USA.gov is the U.S. government's official web portal to all federal, state and local government web resources and services.